sensor_id;sensor_type;location;lat;lon;timestamp;pressure;altitude;pressure_sealevel;temperature;humidity
46111;BME280;31849;55.992;37.252;2023-03-20T00:02:27;99577.09;;;-1.06;46.61
46111;BME280;31849;55.992;37.252;2023-03-20T00:07:30;99569.31;;;-1.27;47.17
46111;BME280;31849;55.992;37.252;2023-03-20T00:12:35;99573.53;;;-1.46;47.75
46111;BME280;31849;55.992;37.252;2023-03-20T00:17:39;99576.09;;;-1.46;47.21
46111;BME280;31849;55.992;37.252;2023-03-20T00:22:43;99564.31;;;-1.62;47.56
46111;BME280;31849;55.992;37.252;2023-03-20T00:27:48;99559.22;;;-1.80;48.00
46111;BME280;31849;55.992;37.252;2023-03-20T00:32:52;99560.28;;;-1.74;47.83
46111;BME280;31849;55.992;37.252;2023-03-20T00:37:56;99565.31;;;-1.58;47.83
46111;BME280;31849;55.992;37.252;2023-03-20T00:43:02;99559.28;;;-1.60;47.42
46111;BME280;31849;55.992;37.252;2023-03-20T00:48:09;99557.81;;;-1.55;47.31
46111;BME280;31849;55.992;37.252;2023-03-20T00:53:15;99554.19;;;-1.60;47.35
46111;BME280;31849;55.992;37.252;2023-03-20T00:58:19;99534.94;;;-1.71;47.53
46111;BME280;31849;55.992;37.252;2023-03-20T01:03:24;99543.16;;;-1.77;47.66
46111;BME280;31849;55.992;37.252;2023-03-20T01:08:28;99538.84;;;-1.96;48.29
46111;BME280;31849;55.992;37.252;2023-03-20T01:13:33;99546.75;;;-1.91;48.96
46111;BME280;31849;55.992;37.252;2023-03-20T01:18:38;99534.44;;;-2.00;49.60
46111;BME280;31849;55.992;37.252;2023-03-20T01:23:41;99531.56;;;-2.06;50.31
46111;BME280;31849;55.992;37.252;2023-03-20T01:28:46;99530.25;;;-2.16;50.20
46111;BME280;31849;55.992;37.252;2023-03-20T01:33:49;99524.50;;;-2.12;49.33
46111;BME280;31849;55.992;37.252;2023-03-20T01:38:55;99525.75;;;-2.04;49.49
46111;BME280;31849;55.992;37.252;2023-03-20T01:44:15;99528.81;;;-1.93;50.46
46111;BME280;31849;55.992;37.252;2023-03-20T01:55:00;99500.97;;;-2.06;50.39
46111;BME280;31849;55.992;37.252;2023-03-20T02:00:10;99507.97;;;-2.02;50.67
46111;BME280;31849;55.992;37.252;2023-03-20T02:05:18;99515.06;;;-1.97;50.46
46111;BME280;31849;55.992;37.252;2023-03-20T02:10:23;99510.09;;;-1.93;50.35
46111;BME280;31849;55.992;37.252;2023-03-20T02:15:30;99508.06;;;-1.83;49.85
46111;BME280;31849;55.992;37.252;2023-03-20T02:20:44;99506.31;;;-1.66;49.76
46111;BME280;31849;55.992;37.252;2023-03-20T02:26:20;99508.22;;;-1.62;49.75
46111;BME280;31849;55.992;37.252;2023-03-20T02:31:38;99497.72;;;-1.50;49.41
46111;BME280;31849;55.992;37.252;2023-03-20T02:37:24;99500.97;;;-1.34;49.76
46111;BME280;31849;55.992;37.252;2023-03-20T02:42:39;99496.25;;;-1.45;49.38
46111;BME280;31849;55.992;37.252;2023-03-20T02:47:49;99488.03;;;-1.57;49.91
46111;BME280;31849;55.992;37.252;2023-03-20T02:53:02;99487.44;;;-1.51;49.69
46111;BME280;31849;55.992;37.252;2023-03-20T02:58:12;99474.69;;;-1.51;49.63
46111;BME280;31849;55.992;37.252;2023-03-20T03:03:20;99484.59;;;-1.39;49.41
46111;BME280;31849;55.992;37.252;2023-03-20T03:08:30;99481.34;;;-1.35;49.31
46111;BME280;31849;55.992;37.252;2023-03-20T03:13:39;99464.50;;;-1.51;49.48
46111;BME280;31849;55.992;37.252;2023-03-20T03:18:45;99473.59;;;-1.56;49.59
46111;BME280;31849;55.992;37.252;2023-03-20T03:23:53;99472.59;;;-1.60;49.15
46111;BME280;31849;55.992;37.252;2023-03-20T03:28:59;99468.59;;;-1.73;49.58
46111;BME280;31849;55.992;37.252;2023-03-20T03:34:05;99464.88;;;-1.98;50.60
46111;BME280;31849;55.992;37.252;2023-03-20T03:39:16;99461.75;;;-2.10;50.85
46111;BME280;31849;55.992;37.252;2023-03-20T03:44:27;99453.19;;;-2.12;51.46
46111;BME280;31849;55.992;37.252;2023-03-20T03:49:35;99445.31;;;-2.17;51.28
46111;BME280;31849;55.992;37.252;2023-03-20T03:54:43;99439.94;;;-2.05;50.94
46111;BME280;31849;55.992;37.252;2023-03-20T03:59:49;99427.47;;;-1.99;50.30
46111;BME280;31849;55.992;37.252;2023-03-20T04:04:54;99438.09;;;-1.52;49.31
46111;BME280;31849;55.992;37.252;2023-03-20T04:09:59;99434.38;;;-1.21;48.53
46111;BME280;31849;55.992;37.252;2023-03-20T04:15:05;99434.25;;;-1.04;48.41
46111;BME280;31849;55.992;37.252;2023-03-20T04:20:10;99428.94;;;-1.09;49.16
46111;BME280;31849;55.992;37.252;2023-03-20T04:25:18;99424.84;;;-1.06;48.96
46111;BME280;31849;55.992;37.252;2023-03-20T04:30:22;99416.28;;;-0.86;48.32
46111;BME280;31849;55.992;37.252;2023-03-20T04:35:25;99419.09;;;-0.80;48.77
46111;BME280;31849;55.992;37.252;2023-03-20T04:40:30;99424.88;;;-0.44;47.73
46111;BME280;31849;55.992;37.252;2023-03-20T04:45:33;99423.56;;;-0.34;47.35
46111;BME280;31849;55.992;37.252;2023-03-20T04:50:37;99424.00;;;-0.23;47.08
46111;BME280;31849;55.992;37.252;2023-03-20T04:55:43;99419.47;;;0.13;46.12
46111;BME280;31849;55.992;37.252;2023-03-20T05:00:46;99424.41;;;0.54;45.75
46111;BME280;31849;55.992;37.252;2023-03-20T05:05:50;99424.69;;;1.87;43.37
46111;BME280;31849;55.992;37.252;2023-03-20T05:10:55;99429.50;;;3.24;40.90
46111;BME280;31849;55.992;37.252;2023-03-20T05:15:58;99426.16;;;4.34;39.29
46111;BME280;31849;55.992;37.252;2023-03-20T05:21:02;99421.31;;;4.91;37.95
46111;BME280;31849;55.992;37.252;2023-03-20T05:26:07;99423.81;;;4.88;37.25
46111;BME280;31849;55.992;37.252;2023-03-20T05:31:11;99424.50;;;4.79;37.03
46111;BME280;31849;55.992;37.252;2023-03-20T05:36:14;99421.69;;;6.09;35.15
46111;BME280;31849;55.992;37.252;2023-03-20T05:41:19;99394.22;;;7.70;32.03
46111;BME280;31849;55.992;37.252;2023-03-20T05:46:23;99409.75;;;9.69;30.26
46111;BME280;31849;55.992;37.252;2023-03-20T05:51:27;99423.47;;;10.78;29.01
46111;BME280;31849;55.992;37.252;2023-03-20T05:56:32;99413.97;;;12.11;27.02
46111;BME280;31849;55.992;37.252;2023-03-20T06:01:36;99416.94;;;11.59;29.06
46111;BME280;31849;55.992;37.252;2023-03-20T06:06:40;99426.22;;;10.05;28.43
46111;BME280;31849;55.992;37.252;2023-03-20T06:11:45;99418.38;;;9.29;29.44
46111;BME280;31849;55.992;37.252;2023-03-20T06:16:48;99415.69;;;8.88;29.15
46111;BME280;31849;55.992;37.252;2023-03-20T06:21:51;99410.50;;;8.88;28.94
46111;BME280;31849;55.992;37.252;2023-03-20T06:26:56;99418.44;;;9.79;27.50
46111;BME280;31849;55.992;37.252;2023-03-20T06:32:00;99416.66;;;10.41;26.99
46111;BME280;31849;55.992;37.252;2023-03-20T06:37:03;99417.56;;;10.18;26.81
46111;BME280;31849;55.992;37.252;2023-03-20T06:42:08;99408.91;;;9.59;27.33
46111;BME280;31849;55.992;37.252;2023-03-20T06:47:16;99373.41;;;9.75;27.22
46111;BME280;31849;55.992;37.252;2023-03-20T06:52:20;99397.41;;;10.90;25.99
46111;BME280;31849;55.992;37.252;2023-03-20T06:57:25;99391.09;;;15.85;21.45
46111;BME280;31849;55.992;37.252;2023-03-20T07:02:29;99391.44;;;17.84;21.69
46111;BME280;31849;55.992;37.252;2023-03-20T07:07:32;99382.78;;;20.95;16.92
46111;BME280;31849;55.992;37.252;2023-03-20T07:12:37;99377.91;;;20.05;16.55
46111;BME280;31849;55.992;37.252;2023-03-20T07:17:41;99379.31;;;19.71;17.06
46111;BME280;31849;55.992;37.252;2023-03-20T07:22:47;99381.88;;;21.33;15.87
46111;BME280;31849;55.992;37.252;2023-03-20T07:27:52;99368.13;;;23.31;14.10
46111;BME280;31849;55.992;37.252;2023-03-20T07:32:55;99369.81;;;23.95;12.86
46111;BME280;31849;55.992;37.252;2023-03-20T07:37:59;99368.56;;;24.45;12.41
46111;BME280;31849;55.992;37.252;2023-03-20T07:43:03;99363.28;;;24.60;11.21
46111;BME280;31849;55.992;37.252;2023-03-20T07:48:07;99352.94;;;24.69;11.20
46111;BME280;31849;55.992;37.252;2023-03-20T07:53:11;99347.78;;;24.81;11.25
46111;BME280;31849;55.992;37.252;2023-03-20T07:58:16;99340.53;;;23.50;12.03
46111;BME280;31849;55.992;37.252;2023-03-20T08:03:19;99344.91;;;23.51;11.93
46111;BME280;31849;55.992;37.252;2023-03-20T08:08:23;99340.72;;;22.83;11.95
46111;BME280;31849;55.992;37.252;2023-03-20T08:13:28;99341.84;;;23.43;11.66
46111;BME280;31849;55.992;37.252;2023-03-20T08:18:31;99338.72;;;25.79;10.23
46111;BME280;31849;55.992;37.252;2023-03-20T08:23:35;99335.34;;;25.50;10.58
46111;BME280;31849;55.992;37.252;2023-03-20T08:28:39;99334.84;;;26.11;9.68
46111;BME280;31849;55.992;37.252;2023-03-20T08:33:49;99322.69;;;26.58;9.72
46111;BME280;31849;55.992;37.252;2023-03-20T08:38:53;99314.91;;;26.68;9.33
46111;BME280;31849;55.992;37.252;2023-03-20T08:43:58;99320.13;;;25.25;10.07
46111;BME280;31849;55.992;37.252;2023-03-20T08:49:02;99314.38;;;22.80;11.08
46111;BME280;31849;55.992;37.252;2023-03-20T08:54:06;99313.31;;;20.91;12.03
46111;BME280;31849;55.992;37.252;2023-03-20T08:59:11;99316.91;;;18.10;13.86
46111;BME280;31849;55.992;37.252;2023-03-20T09:04:15;99306.81;;;16.61;14.53
46111;BME280;31849;55.992;37.252;2023-03-20T09:09:18;99304.25;;;15.26;15.47
46111;BME280;31849;55.992;37.252;2023-03-20T09:14:29;99284.59;;;14.27;16.29
46111;BME280;31849;55.992;37.252;2023-03-20T09:19:32;99293.44;;;12.62;17.15
46111;BME280;31849;55.992;37.252;2023-03-20T09:24:36;99299.47;;;11.90;18.18
46111;BME280;31849;55.992;37.252;2023-03-20T09:29:41;99286.50;;;11.85;17.91
46111;BME280;31849;55.992;37.252;2023-03-20T09:34:45;99278.84;;;11.70;18.30
46111;BME280;31849;55.992;37.252;2023-03-20T09:39:48;99284.84;;;11.75;18.31
46111;BME280;31849;55.992;37.252;2023-03-20T09:44:58;99284.31;;;11.40;18.48
46111;BME280;31849;55.992;37.252;2023-03-20T09:50:17;99267.88;;;11.34;18.91
46111;BME280;31849;55.992;37.252;2023-03-20T09:55:31;99261.16;;;11.06;19.08
46111;BME280;31849;55.992;37.252;2023-03-20T10:00:41;99267.75;;;11.49;18.88
46111;BME280;31849;55.992;37.252;2023-03-20T10:05:48;99269.56;;;11.41;18.49
46111;BME280;31849;55.992;37.252;2023-03-20T10:16:30;99261.59;;;11.58;18.04
46111;BME280;31849;55.992;37.252;2023-03-20T10:21:42;99251.31;;;11.42;17.92
46111;BME280;31849;55.992;37.252;2023-03-20T10:26:50;99250.59;;;11.23;17.65
46111;BME280;31849;55.992;37.252;2023-03-20T10:32:00;99234.00;;;11.37;17.53
46111;BME280;31849;55.992;37.252;2023-03-20T10:37:20;99234.97;;;11.26;16.86
46111;BME280;31849;55.992;37.252;2023-03-20T10:42:32;99230.19;;;10.71;17.15
46111;BME280;31849;55.992;37.252;2023-03-20T10:47:40;99221.31;;;11.00;16.44
46111;BME280;31849;55.992;37.252;2023-03-20T10:52:47;99212.72;;;10.91;16.88
46111;BME280;31849;55.992;37.252;2023-03-20T10:57:55;99212.50;;;11.15;17.21
46111;BME280;31849;55.992;37.252;2023-03-20T11:03:01;99214.47;;;10.86;17.60
46111;BME280;31849;55.992;37.252;2023-03-20T11:08:07;99206.84;;;10.65;18.15
46111;BME280;31849;55.992;37.252;2023-03-20T11:13:15;99202.69;;;10.30;18.48
46111;BME280;31849;55.992;37.252;2023-03-20T11:18:26;99195.81;;;10.16;19.01
46111;BME280;31849;55.992;37.252;2023-03-20T11:23:34;99194.84;;;10.44;18.86
46111;BME280;31849;55.992;37.252;2023-03-20T11:28:41;99190.63;;;10.15;19.40
46111;BME280;31849;55.992;37.252;2023-03-20T11:33:59;99177.72;;;10.04;19.28
46111;BME280;31849;55.992;37.252;2023-03-20T11:39:06;99180.16;;;10.27;19.29
46111;BME280;31849;55.992;37.252;2023-03-20T11:44:20;99173.31;;;10.18;19.15
46111;BME280;31849;55.992;37.252;2023-03-20T11:49:26;99158.66;;;10.05;18.84
46111;BME280;31849;55.992;37.252;2023-03-20T11:54:32;99157.72;;;10.21;18.29
46111;BME280;31849;55.992;37.252;2023-03-20T11:59:36;99128.28;;;10.15;17.32
46111;BME280;31849;55.992;37.252;2023-03-20T12:04:41;99140.47;;;10.00;17.63
46111;BME280;31849;55.992;37.252;2023-03-20T12:09:51;99137.72;;;10.28;17.94
46111;BME280;31849;55.992;37.252;2023-03-20T12:14:59;99130.94;;;10.09;17.54
46111;BME280;31849;55.992;37.252;2023-03-20T12:20:19;99123.13;;;10.07;17.95
46111;BME280;31849;55.992;37.252;2023-03-20T12:25:28;99101.50;;;10.07;18.06
46111;BME280;31849;55.992;37.252;2023-03-20T12:30:45;99108.50;;;9.95;18.33
46111;BME280;31849;55.992;37.252;2023-03-20T12:35:55;99101.53;;;10.00;18.38
46111;BME280;31849;55.992;37.252;2023-03-20T12:41:08;99087.56;;;10.20;18.27
46111;BME280;31849;55.992;37.252;2023-03-20T12:46:23;99093.72;;;10.08;18.58
46111;BME280;31849;55.992;37.252;2023-03-20T12:51:36;99085.75;;;10.28;18.92
46111;BME280;31849;55.992;37.252;2023-03-20T12:56:53;99077.25;;;10.06;18.97
46111;BME280;31849;55.992;37.252;2023-03-20T13:02:11;99073.00;;;9.94;19.13
46111;BME280;31849;55.992;37.252;2023-03-20T13:07:25;99074.72;;;9.95;19.36
46111;BME280;31849;55.992;37.252;2023-03-20T13:12:44;99066.09;;;9.92;19.59
46111;BME280;31849;55.992;37.252;2023-03-20T13:17:54;99067.06;;;9.78;20.05
46111;BME280;31849;55.992;37.252;2023-03-20T13:23:18;99047.31;;;9.40;20.36
46111;BME280;31849;55.992;37.252;2023-03-20T13:28:29;99053.38;;;9.36;20.60
46111;BME280;31849;55.992;37.252;2023-03-20T13:33:45;99047.41;;;9.26;20.48
46111;BME280;31849;55.992;37.252;2023-03-20T13:38:56;99050.81;;;9.33;20.71
46111;BME280;31849;55.992;37.252;2023-03-20T13:44:04;99055.13;;;9.39;20.67
46111;BME280;31849;55.992;37.252;2023-03-20T13:49:14;99049.84;;;9.56;21.07
46111;BME280;31849;55.992;37.252;2023-03-20T13:54:38;99042.81;;;9.76;21.05
46111;BME280;31849;55.992;37.252;2023-03-20T14:00:00;99035.81;;;9.88;21.52
46111;BME280;31849;55.992;37.252;2023-03-20T14:05:11;99034.94;;;9.89;21.58
46111;BME280;31849;55.992;37.252;2023-03-20T14:10:36;99025.50;;;9.80;21.78
46111;BME280;31849;55.992;37.252;2023-03-20T14:15:46;99004.69;;;9.84;21.67
46111;BME280;31849;55.992;37.252;2023-03-20T14:20:53;99013.31;;;9.88;22.21
46111;BME280;31849;55.992;37.252;2023-03-20T14:25:59;99005.44;;;9.97;22.00
46111;BME280;31849;55.992;37.252;2023-03-20T14:31:21;99017.50;;;10.06;21.88
46111;BME280;31849;55.992;37.252;2023-03-20T14:36:30;99001.22;;;9.82;22.35
46111;BME280;31849;55.992;37.252;2023-03-20T14:41:57;99000.41;;;9.79;22.23
46111;BME280;31849;55.992;37.252;2023-03-20T14:47:08;99005.56;;;9.82;22.27
46111;BME280;31849;55.992;37.252;2023-03-20T14:52:32;98999.50;;;9.83;22.76
46111;BME280;31849;55.992;37.252;2023-03-20T14:57:39;99001.34;;;9.64;23.08
46111;BME280;31849;55.992;37.252;2023-03-20T15:03:04;98999.66;;;9.58;22.85
46111;BME280;31849;55.992;37.252;2023-03-20T15:08:14;98981.56;;;9.46;22.97
46111;BME280;31849;55.992;37.252;2023-03-20T15:13:22;98994.53;;;9.47;23.37
46111;BME280;31849;55.992;37.252;2023-03-20T15:18:27;98974.69;;;9.39;23.51
46111;BME280;31849;55.992;37.252;2023-03-20T15:23:33;98966.06;;;9.32;23.35
46111;BME280;31849;55.992;37.252;2023-03-20T15:28:38;98980.72;;;9.38;23.43
46111;BME280;31849;55.992;37.252;2023-03-20T15:33:44;98969.56;;;9.20;23.63
46111;BME280;31849;55.992;37.252;2023-03-20T15:38:48;98982.59;;;9.11;24.01
46111;BME280;31849;55.992;37.252;2023-03-20T15:43:53;98986.13;;;8.88;24.13
46111;BME280;31849;55.992;37.252;2023-03-20T15:48:56;98981.91;;;8.62;24.30
46111;BME280;31849;55.992;37.252;2023-03-20T15:54:03;98976.72;;;8.42;24.92
46111;BME280;31849;55.992;37.252;2023-03-20T15:59:13;98972.41;;;8.32;25.11
46111;BME280;31849;55.992;37.252;2023-03-20T16:04:17;98971.53;;;8.16;24.90
46111;BME280;31849;55.992;37.252;2023-03-20T16:09:22;98981.91;;;8.02;25.32
46111;BME280;31849;55.992;37.252;2023-03-20T16:14:30;98965.50;;;7.74;26.05
46111;BME280;31849;55.992;37.252;2023-03-20T16:19:34;98985.31;;;7.60;27.11
46111;BME280;31849;55.992;37.252;2023-03-20T16:24:39;98979.22;;;7.45;27.02
46111;BME280;31849;55.992;37.252;2023-03-20T16:29:44;98977.44;;;7.19;27.13
46111;BME280;31849;55.992;37.252;2023-03-20T16:34:49;98977.31;;;6.89;27.26
46111;BME280;31849;55.992;37.252;2023-03-20T16:40:15;98975.53;;;6.77;28.17
46111;BME280;31849;55.992;37.252;2023-03-20T16:45:25;98981.59;;;6.77;27.49
46111;BME280;31849;55.992;37.252;2023-03-20T16:50:34;98972.94;;;6.75;28.21
46111;BME280;31849;55.992;37.252;2023-03-20T16:55:42;98974.69;;;6.79;27.80
46111;BME280;31849;55.992;37.252;2023-03-20T17:00:50;98969.56;;;6.90;28.03
46111;BME280;31849;55.992;37.252;2023-03-20T17:05:56;98971.31;;;6.91;28.06
46111;BME280;31849;55.992;37.252;2023-03-20T17:11:04;98964.41;;;6.89;27.67
46111;BME280;31849;55.992;37.252;2023-03-20T17:16:16;98969.56;;;6.90;28.16
46111;BME280;31849;55.992;37.252;2023-03-20T17:21:20;98965.22;;;6.80;29.28
46111;BME280;31849;55.992;37.252;2023-03-20T17:26:24;98967.75;;;6.71;29.19
46111;BME280;31849;55.992;37.252;2023-03-20T17:31:29;98956.53;;;6.64;29.39
46111;BME280;31849;55.992;37.252;2023-03-20T17:36:32;98955.63;;;6.56;30.81
46111;BME280;31849;55.992;37.252;2023-03-20T17:41:36;98957.31;;;6.46;30.21
46111;BME280;31849;55.992;37.252;2023-03-20T17:46:41;98945.19;;;6.32;31.29
46111;BME280;31849;55.992;37.252;2023-03-20T17:51:59;98942.53;;;6.28;30.92
46111;BME280;31849;55.992;37.252;2023-03-20T17:57:02;98949.44;;;6.32;30.61
46111;BME280;31849;55.992;37.252;2023-03-20T18:02:07;98945.19;;;6.36;30.98
46111;BME280;31849;55.992;37.252;2023-03-20T18:07:11;98946.84;;;6.29;32.53
46111;BME280;31849;55.992;37.252;2023-03-20T18:12:15;98939.84;;;6.11;32.27
46111;BME280;31849;55.992;37.252;2023-03-20T18:17:21;98947.47;;;5.95;33.32
46111;BME280;31849;55.992;37.252;2023-03-20T18:22:24;98939.56;;;5.80;34.15
46111;BME280;31849;55.992;37.252;2023-03-20T18:27:28;98935.22;;;5.73;34.54
46111;BME280;31849;55.992;37.252;2023-03-20T18:32:34;98943.72;;;5.64;34.87
46111;BME280;31849;55.992;37.252;2023-03-20T18:37:37;98929.91;;;5.56;34.93
46111;BME280;31849;55.992;37.252;2023-03-20T18:42:41;98918.63;;;5.43;35.77
46111;BME280;31849;55.992;37.252;2023-03-20T18:47:46;98922.88;;;5.39;35.67
46111;BME280;31849;55.992;37.252;2023-03-20T18:52:50;98919.31;;;5.25;36.71
46111;BME280;31849;55.992;37.252;2023-03-20T18:57:54;98922.59;;;5.13;37.41
46111;BME280;31849;55.992;37.252;2023-03-20T19:02:58;98922.56;;;5.10;37.92
46111;BME280;31849;55.992;37.252;2023-03-20T19:08:03;98914.75;;;4.99;37.44
46111;BME280;31849;55.992;37.252;2023-03-20T19:13:07;98908.59;;;4.88;38.34
46111;BME280;31849;55.992;37.252;2023-03-20T19:18:14;98910.28;;;4.86;39.34
46111;BME280;31849;55.992;37.252;2023-03-20T19:23:19;98911.13;;;4.85;39.03
46111;BME280;31849;55.992;37.252;2023-03-20T19:28:24;98896.31;;;4.65;40.07
46111;BME280;31849;55.992;37.252;2023-03-20T19:33:42;98895.34;;;4.58;39.60
46111;BME280;31849;55.992;37.252;2023-03-20T19:38:45;98896.16;;;4.51;39.87
46111;BME280;31849;55.992;37.252;2023-03-20T19:43:48;98900.19;;;4.34;40.36
46111;BME280;31849;55.992;37.252;2023-03-20T19:48:57;98884.84;;;4.42;41.00
46111;BME280;31849;55.992;37.252;2023-03-20T19:54:01;98886.56;;;4.41;40.42
46111;BME280;31849;55.992;37.252;2023-03-20T19:59:04;98883.13;;;4.42;40.57
46111;BME280;31849;55.992;37.252;2023-03-20T20:04:10;98878.72;;;4.33;41.40
46111;BME280;31849;55.992;37.252;2023-03-20T20:09:14;98871.91;;;4.34;40.75
46111;BME280;31849;55.992;37.252;2023-03-20T20:14:18;98875.22;;;4.27;41.80
46111;BME280;31849;55.992;37.252;2023-03-20T20:19:25;98874.34;;;4.25;39.87
46111;BME280;31849;55.992;37.252;2023-03-20T20:24:29;98868.28;;;4.21;41.10
46111;BME280;31849;55.992;37.252;2023-03-20T20:29:32;98866.72;;;4.32;41.17
46111;BME280;31849;55.992;37.252;2023-03-20T20:34:37;98855.41;;;4.21;42.07
46111;BME280;31849;55.992;37.252;2023-03-20T20:40:03;98855.50;;;4.29;41.75
46111;BME280;31849;55.992;37.252;2023-03-20T20:45:08;98842.53;;;4.21;42.07
46111;BME280;31849;55.992;37.252;2023-03-20T20:50:16;98843.41;;;4.21;42.46
46111;BME280;31849;55.992;37.252;2023-03-20T20:55:21;98841.69;;;4.19;42.59
46111;BME280;31849;55.992;37.252;2023-03-20T21:00:26;98840.06;;;4.29;41.98
46111;BME280;31849;55.992;37.252;2023-03-20T21:05:50;98835.94;;;4.42;41.58
46111;BME280;31849;55.992;37.252;2023-03-20T21:10:53;98834.06;;;4.28;42.49
46111;BME280;31849;55.992;37.252;2023-03-20T21:15:57;98814.13;;;4.12;43.29
46111;BME280;31849;55.992;37.252;2023-03-20T21:21:06;98814.13;;;4.12;43.45
46111;BME280;31849;55.992;37.252;2023-03-20T21:26:10;98813.28;;;4.13;43.03
46111;BME280;31849;55.992;37.252;2023-03-20T21:31:21;98809.06;;;4.18;43.83
46111;BME280;31849;55.992;37.252;2023-03-20T21:36:32;98809.88;;;4.15;43.04
46111;BME280;31849;55.992;37.252;2023-03-20T21:41:35;98803.81;;;4.09;44.29
46111;BME280;31849;55.992;37.252;2023-03-20T21:46:39;98793.44;;;4.02;42.71
46111;BME280;31849;55.992;37.252;2023-03-20T21:52:04;98795.25;;;4.11;43.14
46111;BME280;31849;55.992;37.252;2023-03-20T21:57:28;98793.59;;;4.16;42.99
46111;BME280;31849;55.992;37.252;2023-03-20T22:02:52;98784.94;;;4.11;43.34
46111;BME280;31849;55.992;37.252;2023-03-20T22:08:06;98783.22;;;4.09;43.84
46111;BME280;31849;55.992;37.252;2023-03-20T22:13:29;98773.69;;;4.01;43.62
46111;BME280;31849;55.992;37.252;2023-03-20T22:18:52;98772.75;;;3.96;44.20
46111;BME280;31849;55.992;37.252;2023-03-20T22:24:17;98758.91;;;3.85;44.55
46111;BME280;31849;55.992;37.252;2023-03-20T22:29:41;98753.50;;;3.66;45.08
46111;BME280;31849;55.992;37.252;2023-03-20T22:35:06;98759.38;;;3.59;44.96
46111;BME280;31849;55.992;37.252;2023-03-20T22:40:31;98752.59;;;3.61;44.94
46111;BME280;31849;55.992;37.252;2023-03-20T22:45:54;98757.63;;;3.54;44.99
46111;BME280;31849;55.992;37.252;2023-03-20T22:51:17;98747.41;;;3.58;44.70
46111;BME280;31849;55.992;37.252;2023-03-20T22:56:34;98740.53;;;3.59;45.08
46111;BME280;31849;55.992;37.252;2023-03-20T23:01:38;98735.25;;;3.46;45.01
46111;BME280;31849;55.992;37.252;2023-03-20T23:06:41;98726.72;;;3.49;45.03
46111;BME280;31849;55.992;37.252;2023-03-20T23:11:47;98717.41;;;3.59;45.13
46111;BME280;31849;55.992;37.252;2023-03-20T23:16:51;98715.56;;;3.48;45.24
46111;BME280;31849;55.992;37.252;2023-03-20T23:21:54;98692.16;;;3.28;45.43
46111;BME280;31849;55.992;37.252;2023-03-20T23:26:59;98708.38;;;3.24;46.16
46111;BME280;31849;55.992;37.252;2023-03-20T23:32:03;98704.97;;;3.25;45.43
46111;BME280;31849;55.992;37.252;2023-03-20T23:37:06;98696.44;;;3.29;45.66
46111;BME280;31849;55.992;37.252;2023-03-20T23:42:11;98701.50;;;3.23;46.37
46111;BME280;31849;55.992;37.252;2023-03-20T23:47:30;98680.97;;;3.25;45.91
46111;BME280;31849;55.992;37.252;2023-03-20T23:52:45;98683.69;;;3.36;45.74
46111;BME280;31849;55.992;37.252;2023-03-20T23:58:03;98680.28;;;3.38;45.74
